»·PEaware :: PSV891 KPHX-KSBA

PSV891 :: KPHX-KSBA

FLIGHT INFORMATION

Flight Status: Arrived
Operator:
Power Set Virtual (website)
More flights by this operator :: More flights under this callsign
Pilot: Anonymous 10623 (10623)
Aircraft: BOEING 737-600
(B736)
More flights by this aircraft type
Origin: KPHX Phoenix Sky Harbor Intl
United States
Destination: KSBA Santa Barbara Mun
United States
More flights between these airports :: More routes between these airports
Route: +KEENS2 HRRBR CURIV J212 PSP PORPS PITBL1
File this flight plan on PilotEdge
Remarks:
Altitude:
(Current/Filed)
38,000ft
Speed:
(Current/Filed)
442kts
Departed: 01-Aug-20 03:13 PM
Arrived: 01-Aug-20 04:22 PM
Distance/Time
Traveled:
394nm/1:08
Distance/Time
To Go:
Arrived

Flight Plot

Page will automatically refresh every two minutes.


Map Options




Map Legend


Flown Route
Filed Route
Departure Airport
Arrival Airport
Navaid (VOR, NDB)
Fix

Horizontal Profiles

Position Reports

Time Latitude Longitude Heading Altitude Ground
Speed
01-Aug-20 14:34 33.438235 -111.998726 230 1143ft 0kts
01-Aug-20 14:35 33.438235 -111.998726 230 1143ft 0kts
01-Aug-20 14:36 33.438235 -111.998726 230 1143ft 0kts
01-Aug-20 14:37 33.438235 -111.998726 230 1143ft 0kts
01-Aug-20 14:38 33.438235 -111.998726 230 1143ft 0kts
01-Aug-20 14:39 33.438235 -111.998726 230 1143ft 0kts
01-Aug-20 14:40 33.438235 -111.998726 230 1143ft 0kts
01-Aug-20 14:41 33.438235 -111.998726 230 1143ft 0kts
01-Aug-20 14:42 33.438235 -111.998726 230 1143ft 0kts
01-Aug-20 14:43 33.438235 -111.998726 230 1143ft 0kts
01-Aug-20 14:44 33.438235 -111.998726 230 1143ft 0kts
01-Aug-20 14:45 33.438235 -111.998726 230 1143ft 0kts
01-Aug-20 14:46 33.438235 -111.998726 230 1143ft 0kts
01-Aug-20 14:47 33.438235 -111.998726 230 1143ft 0kts
01-Aug-20 14:48 33.438235 -111.998726 230 1143ft 0kts
01-Aug-20 14:49 33.438235 -111.998726 230 1143ft 0kts
01-Aug-20 14:50 33.438235 -111.998726 230 1143ft 0kts
01-Aug-20 14:51 33.438235 -111.998726 230 1143ft 0kts
01-Aug-20 14:52 33.438235 -111.998726 230 1143ft 0kts
01-Aug-20 14:53 33.438235 -111.998726 230 1143ft 0kts
01-Aug-20 14:54 33.438235 -111.998726 230 1143ft 0kts
01-Aug-20 14:55 33.438235 -111.998726 230 1143ft 0kts
01-Aug-20 14:56 33.438235 -111.998726 230 1143ft 0kts
01-Aug-20 14:57 33.438235 -111.998726 230 1143ft 0kts
01-Aug-20 14:58 33.438235 -111.998726 230 1143ft 0kts
01-Aug-20 14:59 33.438235 -111.998726 230 1143ft 0kts
01-Aug-20 15:00 33.438235 -111.998726 230 1143ft 0kts
01-Aug-20 15:01 33.438322 -111.998272 327 1143ft 2kts
01-Aug-20 15:02 33.437542 -111.998179 2 1143ft 2kts
01-Aug-20 15:03 33.437534 -111.998180 2 1143ft 0kts
01-Aug-20 15:04 33.437534 -111.998180 2 1143ft 0kts
01-Aug-20 15:05 33.437534 -111.998180 2 1143ft 0kts
01-Aug-20 15:06 33.437549 -111.998179 2 1143ft 2kts
01-Aug-20 15:07 33.438280 -111.998162 0 1143ft 0kts
01-Aug-20 15:08 33.439754 -111.997198 89 1143ft 13kts
01-Aug-20 15:09 33.439731 -111.993213 89 1143ft 10kts
01-Aug-20 15:10 33.439759 -111.992738 79 1143ft 0kts
01-Aug-20 15:11 33.440847 -111.992709 272 1143ft 4kts
01-Aug-20 15:12 33.440595 -112.013677 267 1352ft 136kts
01-Aug-20 15:13 33.430384 -112.063130 251 3326ft 172kts
01-Aug-20 15:14 33.410623 -112.129430 249 4396ft 251kts
01-Aug-20 15:15 33.393120 -112.216991 273 7116ft 285kts
01-Aug-20 15:16 33.407636 -112.312540 280 10199ft 294kts
01-Aug-20 15:17 33.423354 -112.417344 280 12462ft 341kts
01-Aug-20 15:18 33.439898 -112.530575 279 15631ft 357kts
01-Aug-20 15:19 33.451411 -112.651360 269 18762ft 373kts
01-Aug-20 15:20 33.452643 -112.779149 273 21510ft 393kts
01-Aug-20 15:21 33.472702 -112.908805 284 23874ft 408kts
01-Aug-20 15:22 33.497957 -113.043447 283 26061ft 420kts
01-Aug-20 15:23 33.524009 -113.181933 284 28054ft 430kts
01-Aug-20 15:24 33.550120 -113.323326 283 29820ft 440kts
01-Aug-20 15:25 33.576476 -113.468477 283 31489ft 447kts
01-Aug-20 15:26 33.603385 -113.612401 284 33697ft 438kts
01-Aug-20 15:27 33.629591 -113.754103 284 35576ft 432kts
01-Aug-20 15:28 33.655062 -113.892555 284 37129ft 428kts
01-Aug-20 15:29 33.680540 -114.032405 284 37897ft 431kts
01-Aug-20 15:30 33.705812 -114.171704 284 37891ft 425kts
01-Aug-20 15:31 33.731272 -114.309701 283 37885ft 426kts
01-Aug-20 15:32 33.756087 -114.448887 283 37873ft 426kts
01-Aug-20 15:33 33.776594 -114.589402 276 37872ft 429kts
01-Aug-20 15:34 33.784071 -114.732994 275 37872ft 430kts
01-Aug-20 15:35 33.791966 -114.876723 275 37874ft 431kts
01-Aug-20 15:36 33.800232 -115.019588 275 37879ft 431kts
01-Aug-20 15:37 33.808624 -115.163213 275 37887ft 431kts
01-Aug-20 15:38 33.816173 -115.306050 274 37897ft 430kts
01-Aug-20 15:39 33.823609 -115.449366 274 37905ft 430kts
01-Aug-20 15:41 33.830673 -115.591395 274 37910ft 430kts
01-Aug-20 15:42 33.837538 -115.734339 274 37907ft 428kts
01-Aug-20 15:43 33.844337 -115.877568 274 37901ft 428kts
01-Aug-20 15:44 33.851520 -116.020453 274 37892ft 428kts
01-Aug-20 15:45 33.858454 -116.163540 273 37887ft 428kts
01-Aug-20 15:46 33.864514 -116.302506 273 37923ft 429kts
01-Aug-20 15:47 33.874499 -116.443867 282 37922ft 428kts
01-Aug-20 15:48 33.906830 -116.582192 286 37934ft 429kts
01-Aug-20 15:49 33.940041 -116.719898 286 37999ft 429kts
01-Aug-20 15:50 33.973366 -116.858073 286 37543ft 431kts
01-Aug-20 15:51 34.006029 -116.992604 285 35269ft 429kts
01-Aug-20 15:52 34.038911 -117.130169 285 31974ft 438kts
01-Aug-20 15:53 34.071363 -117.266895 285 28275ft 446kts
01-Aug-20 15:54 34.103916 -117.404824 284 25186ft 431kts
01-Aug-20 15:55 34.134962 -117.537083 284 24171ft 423kts
01-Aug-20 15:56 34.166988 -117.674270 284 24025ft 425kts
01-Aug-20 15:56 34.193099 -117.786201 284 24030ft 425kts
01-Aug-20 15:58 34.230088 -117.945783 284 24025ft 425kts
01-Aug-20 15:59 34.259178 -118.073222 284 24016ft 425kts
01-Aug-20 15:59 34.285564 -118.187188 285 24019ft 425kts
01-Aug-20 16:00 34.320049 -118.324426 285 24020ft 426kts
01-Aug-20 16:01 34.354489 -118.461716 285 24035ft 426kts
01-Aug-20 16:03 34.392382 -118.615311 285 24008ft 397kts
01-Aug-20 16:03 34.418197 -118.721083 285 24006ft 392kts
01-Aug-20 16:04 34.423438 -118.846823 259 23791ft 391kts
01-Aug-20 16:05 34.402404 -118.965959 257 21226ft 392kts
01-Aug-20 16:06 34.380366 -119.093517 257 18430ft 383kts
01-Aug-20 16:07 34.359578 -119.219062 257 15623ft 375kts
01-Aug-20 16:08 34.339279 -119.338277 257 13837ft 333kts
01-Aug-20 16:09 34.322243 -119.437603 256 13042ft 281kts
01-Aug-20 16:10 34.311551 -119.529257 273 11162ft 275kts
01-Aug-20 16:11 34.325191 -119.617096 280 9340ft 268kts
01-Aug-20 16:12 34.340248 -119.704643 282 7474ft 262kts
01-Aug-20 16:13 34.345843 -119.791609 270 5630ft 258kts
01-Aug-20 16:14 34.341955 -119.875452 279 4137ft 249kts
01-Aug-20 16:15 34.350878 -119.948420 280 3797ft 194kts
01-Aug-20 16:16 34.374633 -119.998252 325 2799ft 176kts
01-Aug-20 16:17 34.417908 -119.992268 41 2157ft 162kts
01-Aug-20 16:18 34.425615 -119.945012 90 1401ft 137kts
01-Aug-20 16:19 34.426319 -119.900442 79 758ft 128kts
01-Aug-20 16:20 34.427433 -119.856895 90 80ft 127kts
01-Aug-20 16:21 34.427685 -119.838777 123 18ft 7kts
01-Aug-20 16:22 34.427035 -119.838446 165 18ft 0kts
01-Aug-20 16:23 34.426967 -119.838428 167 18ft 5kts
01-Aug-20 16:24 34.424929 -119.837769 165 18ft 5kts
01-Aug-20 16:25 34.424291 -119.837112 103 18ft 2kts
01-Aug-20 16:26 34.424267 -119.836990 103 18ft 0kts
01-Aug-20 16:27 34.424267 -119.836990 103 18ft 0kts
01-Aug-20 16:28 34.424267 -119.836990 103 18ft 0kts

Navigation Log

Ident Type
Flight plan parsing failed, navigation log unavailable